Time;durP1;ratioP1;P1;durP2;ratioP2;P2;SDS_P1;SDS_P2;PMS_P1;PMS_P2;Temp;Humidity;BMP_temperature;BMP_pressure;BME280_temperature;BME280_humidity;BME280_pressure;Samples;Min_cycle;Max_cycle;Signal;HPM_P1;HPM_P2
2022/11/29 00:00:59;;;;;;;74.55;32.20;;;;;;;2.98;100.00;101056.91;4986042;28;20038;-78
2022/11/29 00:03:26;;;;;;;71.70;31.25;;;;;;;2.94;100.00;101053.63;4984807;28;20037;-78
2022/11/29 00:05:52;;;;;;;68.68;30.45;;;;;;;2.94;100.00;101045.72;4965736;28;20411;-77
2022/11/29 00:08:19;;;;;;;65.80;30.52;;;;;;;2.95;100.00;101050.06;4984692;28;20027;-77
2022/11/29 00:10:44;;;;;;;65.95;29.65;;;;;;;3.00;100.00;101052.38;4968400;28;20406;-76
2022/11/29 00:13:09;;;;;;;76.60;33.43;;;;;;;3.00;100.00;101041.81;4981524;28;20493;-77
2022/11/29 00:15:36;;;;;;;76.70;33.00;;;;;;;3.02;100.00;101050.47;4984099;28;20474;-76
2022/11/29 00:18:02;;;;;;;73.75;29.52;;;;;;;2.99;100.00;101050.66;4985852;28;20292;-77
2022/11/29 00:20:28;;;;;;;67.40;29.98;;;;;;;3.00;100.00;101054.13;4978312;28;20026;-77
2022/11/29 00:22:53;;;;;;;65.15;29.42;;;;;;;2.93;100.00;101062.50;4981665;28;20038;-77
2022/11/29 00:25:19;;;;;;;68.83;31.90;;;;;;;3.02;100.00;101057.53;4977837;28;20042;-77
2022/11/29 00:27:44;;;;;;;75.10;33.28;;;;;;;2.97;100.00;101049.94;4980153;28;20031;-76
2022/11/29 00:30:10;;;;;;;76.00;31.40;;;;;;;2.92;100.00;101044.97;4986020;28;20551;-77
2022/11/29 00:32:36;;;;;;;69.47;30.98;;;;;;;2.85;100.00;101030.50;4984298;28;20038;-77
2022/11/29 00:35:01;;;;;;;66.67;31.43;;;;;;;2.98;100.00;101056.06;4984216;28;20034;-76
2022/11/29 00:37:26;;;;;;;68.60;29.57;;;;;;;2.98;100.00;101056.91;4981379;28;20038;-77
2022/11/29 00:39:51;;;;;;;63.07;28.57;;;;;;;2.91;100.00;101048.56;4984244;28;20499;-76
2022/11/29 00:42:17;;;;;;;66.93;30.60;;;;;;;2.91;100.00;101053.84;4981391;28;20640;-76
2022/11/29 00:44:42;;;;;;;72.03;33.72;;;;;;;2.82;100.00;101043.09;4984192;28;20033;-77
2022/11/29 00:47:08;;;;;;;75.47;31.23;;;;;;;2.83;100.00;101056.16;4981449;28;20133;-76
2022/11/29 00:49:33;;;;;;;73.38;32.03;;;;;;;2.84;100.00;101062.28;4984346;28;20374;-76
2022/11/29 00:51:58;;;;;;;75.47;34.07;;;;;;;2.86;100.00;101055.97;4985143;28;20053;-77
2022/11/29 00:54:24;;;;;;;75.70;33.87;;;;;;;2.79;100.00;101054.69;4967756;28;20482;-77
2022/11/29 00:56:49;;;;;;;74.83;30.97;;;;;;;2.89;100.00;101058.38;4984196;28;20273;-77
2022/11/29 00:59:15;;;;;;;72.85;30.38;;;;;;;2.94;100.00;101060.69;4985381;28;20547;-77
2022/11/29 01:01:40;;;;;;;77.73;35.23;;;;;;;2.95;100.00;101060.59;4977600;28;20066;-76
2022/11/29 01:04:05;;;;;;;72.30;31.00;;;;;;;2.91;100.00;101061.75;4985567;28;20048;-77
2022/11/29 01:06:31;;;;;;;77.90;33.03;;;;;;;2.80;100.00;101050.25;4983595;28;20282;-77
2022/11/29 01:08:56;;;;;;;73.57;30.43;;;;;;;2.77;100.00;101047.84;4984134;28;20030;-76
2022/11/29 01:11:25;;;;;;;75.47;34.87;;;;;;;2.83;100.00;101061.41;4977651;28;20511;-76
2022/11/29 01:13:54;;;;;;;84.07;35.90;;;;;;;2.90;100.00;101052.16;4983921;28;20473;-76
2022/11/29 01:16:20;;;;;;;72.20;31.45;;;;;;;2.81;100.00;101046.66;4983918;28;20116;-77
2022/11/29 01:18:46;;;;;;;76.45;32.50;;;;;;;2.80;100.00;101050.25;4996416;28;20427;-77
2022/11/29 01:21:14;;;;;;;70.18;31.92;;;;;;;2.84;100.00;101060.50;4985037;28;20117;-77
2022/11/29 01:23:41;;;;;;;75.05;31.05;;;;;;;2.84;100.00;101057.84;4977984;28;20514;-77
2022/11/29 01:26:10;;;;;;;71.45;30.75;;;;;;;2.82;100.00;101045.72;4987488;28;20100;-77
2022/11/29 01:28:38;;;;;;;80.50;34.42;;;;;;;2.79;100.00;101053.84;4986402;28;20034;-77
2022/11/29 01:31:07;;;;;;;68.22;31.90;;;;;;;2.75;100.00;101046.13;4988851;28;20038;-77
2022/11/29 01:33:33;;;;;;;76.72;31.65;;;;;;;2.71;100.00;101054.34;4984696;28;20045;-76
2022/11/29 01:35:59;;;;;;;75.18;32.28;;;;;;;2.78;100.00;101058.25;4988777;28;20347;-76
2022/11/29 01:38:24;;;;;;;83.57;36.42;;;;;;;2.84;100.00;101046.47;4986144;28;20093;-77
2022/11/29 01:41:00;;;;;;;74.40;33.40;;;;;;;2.82;100.00;101049.19;4971069;28;20055;-77
2022/11/29 01:43:26;;;;;;;;;;;;;;;2.92;100.00;101057.31;4979762;28;20038;-77
2022/11/29 01:45:51;;;;;;;79.88;35.88;;;;;;;2.81;100.00;101039.63;4988299;28;19918;-76
2022/11/29 01:48:20;;;;;;;79.25;32.92;;;;;;;2.82;100.00;101062.38;4981058;28;20093;-77
2022/11/29 01:50:45;;;;;;;73.40;33.17;;;;;;;2.80;100.00;101039.69;4982673;28;20039;-76
2022/11/29 01:53:12;;;;;;;72.83;32.10;;;;;;;2.91;100.00;101058.28;4988724;28;20074;-77
2022/11/29 01:55:41;;;;;;;84.55;34.50;;;;;;;2.78;100.00;101046.88;4987943;28;20339;-76
2022/11/29 01:58:08;;;;;;;70.03;32.28;;;;;;;2.79;100.00;101046.78;4981192;28;20157;-76
2022/11/29 02:00:34;;;;;;;72.63;32.03;;;;;;;2.84;100.00;101049.94;4980973;28;20476;-76
2022/11/29 02:03:12;;;;;;;77.97;34.63;;;;;;;2.88;100.00;101053.19;4983860;28;20050;-76
2022/11/29 02:05:49;;;;;;;78.53;32.22;;;;;;;2.82;100.00;101041.28;4986719;28;20065;-76
2022/11/29 02:08:22;;;;;;;80.28;33.00;;;;;;;2.93;100.00;101057.22;4985652;28;20070;-77
2022/11/29 02:11:09;;;;;;;76.97;33.28;;;;;;;2.91;100.00;101053.84;4985632;28;20121;-77
2022/11/29 02:13:59;;;;;;;73.40;34.63;;;;;;;2.88;100.00;101051.44;4986907;28;20049;-77
2022/11/29 02:16:36;;;;;;;78.80;33.53;;;;;;;2.82;100.00;101043.91;4987832;28;20080;-77
2022/11/29 02:19:19;;;;;;;82.10;34.10;;;;;;;2.81;100.00;101049.28;4982775;28;20034;-76
2022/11/29 02:21:54;;;;;;;73.85;32.53;;;;;;;2.93;100.00;101056.38;4986333;28;20038;-77
2022/11/29 02:24:47;;;;;;;86.25;34.67;;;;;;;2.87;100.00;101057.63;4987875;28;20038;-77
2022/11/29 02:27:24;;;;;;;74.10;32.50;;;;;;;2.76;100.00;101054.88;4982933;28;20503;-77
2022/11/29 02:30:11;;;;;;;84.32;37.05;;;;;;;2.80;100.00;101056.38;4979822;28;20038;-76
2022/11/29 02:33:08;;;;;;;82.32;36.97;;;;;;;2.84;100.00;101057.84;4986286;28;20256;-76
2022/11/29 02:35:52;;;;;;;87.57;36.80;;;;;;;2.73;100.00;101057.72;4987230;28;20365;-77
2022/11/29 02:38:35;;;;;;;81.95;37.63;;;;;;;2.79;100.00;101054.69;4980301;28;20329;-77
2022/11/29 02:41:31;;;;;;;83.95;34.55;;;;;;;2.81;100.00;101067.75;4997297;28;20038;-77
2022/11/29 02:44:01;;;;;;;85.22;34.67;;;;;;;2.81;100.00;101073.03;4964232;28;20057;-76
2022/11/29 02:46:49;;;;;;;80.55;34.55;;;;;;;2.69;100.00;101058.88;4986093;28;20038;-77
2022/11/29 02:50:02;;;;;;;86.88;38.25;;;;;;;2.67;100.00;101071.31;4984111;28;20041;-77
2022/11/29 02:52:54;;;;;;;78.80;35.50;;;;;;;2.79;100.00;101081.06;4983993;28;20065;-77
2022/11/29 02:55:56;;;;;;;85.30;37.88;;;;;;;2.77;100.00;101084.75;4969688;28;20039;-77
2022/11/29 02:58:46;;;;;;;77.45;36.22;;;;;;;2.74;100.00;101080.53;4964988;28;20298;-77
2022/11/29 03:01:36;;;;;;;78.53;36.88;;;;;;;2.70;100.00;101081.69;4962613;28;20125;-77
2022/11/29 03:04:02;;;;;;;84.20;38.00;;;;;;;2.81;100.00;101095.00;4955907;28;20502;-77
2022/11/29 03:06:50;;;;;;;83.40;35.80;;;;;;;2.80;100.00;101097.72;4987187;28;20061;-76
2022/11/29 03:09:25;;;;;;;85.03;39.22;;;;;;;2.79;100.00;101099.50;4983746;28;20046;-77
2022/11/29 03:12:06;;;;;;;84.97;39.43;;;;;;;2.77;100.00;101098.78;4965728;28;20057;-77
2022/11/29 03:14:46;;;;;;;84.18;37.33;;;;;;;2.85;100.00;101101.72;4986727;28;20289;-77
2022/11/29 03:17:36;;;;;;;91.18;38.15;;;;;;;2.76;100.00;101097.06;4986701;28;20065;-77
2022/11/29 03:20:06;;;;;;;80.47;37.90;;;;;;;2.82;100.00;101107.22;4979602;28;20476;-77
2022/11/29 03:22:47;;;;;;;87.53;37.63;;;;;;;2.83;100.00;101105.41;4969134;28;20092;-77
2022/11/29 03:25:21;;;;;;;81.82;37.85;;;;;;;2.86;100.00;101111.34;4985253;28;20105;-77
2022/11/29 03:28:13;;;;;;;83.70;37.38;;;;;;;2.99;100.00;101118.41;4967305;28;20414;-77
2022/11/29 03:30:45;;;;;;;84.32;37.95;;;;;;;2.86;100.00;101100.78;4979097;28;20065;-77
2022/11/29 03:33:41;;;;;;;82.63;39.30;;;;;;;2.91;100.00;101111.88;4969098;28;20034;-76
2022/11/29 03:36:26;;;;;;;85.70;38.63;;;;;;;2.87;100.00;101110.38;4981717;28;20038;-77
2022/11/29 03:38:55;;;;;;;84.75;40.25;;;;;;;2.82;100.00;101101.94;4984537;28;20046;-77
2022/11/29 03:41:42;;;;;;;86.78;38.35;;;;;;;2.82;100.00;101109.84;4986223;28;20392;-77
2022/11/29 03:44:33;;;;;;;82.35;39.03;;;;;;;2.89;100.00;101108.47;4981531;28;20184;-78
2022/11/29 03:47:13;;;;;;;87.38;38.05;;;;;;;2.86;100.00;101103.44;4978790;28;20046;-76
2022/11/29 03:49:48;;;;;;;84.32;39.70;;;;;;;2.87;100.00;101112.19;4986043;28;20034;-77
2022/11/29 03:52:38;;;;;;;87.53;38.22;;;;;;;2.89;100.00;101113.75;4984774;28;20472;-77
2022/11/29 03:55:22;;;;;;;87.40;38.38;;;;;;;2.78;100.00;101110.16;4979660;28;20088;-76
2022/11/29 03:58:25;;;;;;;92.70;39.78;;;;;;;2.84;100.00;101110.59;4984925;28;20042;-77
2022/11/29 04:01:17;;;;;;;80.95;38.55;;;;;;;2.82;100.00;101111.66;4981143;28;20042;-77
2022/11/29 04:04:11;;;;;;;84.47;36.30;;;;;;;2.87;100.00;101120.91;4985245;28;20034;-76
2022/11/29 04:06:58;;;;;;;86.72;37.88;;;;;;;2.91;100.00;101122.41;4983132;28;20518;-77
2022/11/29 04:09:56;;;;;;;78.00;40.85;;;;;;;2.80;100.00;101118.81;4984647;28;20080;-77
2022/11/29 04:13:00;;;;;;;88.82;40.30;;;;;;;2.79;100.00;101125.88;4958419;28;20124;-76
2022/11/29 04:15:44;;;;;;;89.78;39.03;;;;;;;2.82;100.00;101125.66;4917618;28;20226;-78
2022/11/29 04:18:33;;;;;;;91.90;41.17;;;;;;;2.80;100.00;101124.09;4982532;28;20495;-77
2022/11/29 04:21:32;;;;;;;91.30;40.15;;;;;;;2.77;100.00;101129.56;4963649;28;20049;-77
2022/11/29 04:24:25;;;;;;;91.82;39.58;;;;;;;2.79;100.00;101132.97;4976275;28;20039;-77
2022/11/29 04:27:03;;;;;;;87.30;40.78;;;;;;;2.78;100.00;101132.09;4983760;28;20049;-77
2022/11/29 04:29:42;;;;;;;92.80;42.75;;;;;;;2.77;100.00;101130.41;4985422;28;20180;-77
2022/11/29 04:32:43;;;;;;;78.03;38.65;;;;;;;2.85;100.00;101133.38;4978138;28;20042;-78
2022/11/29 04:35:42;;;;;;;90.28;38.67;;;;;;;2.80;100.00;101140.75;4964112;28;20080;-78
2022/11/29 04:38:46;;;;;;;88.93;41.47;;;;;;;2.87;100.00;101144.66;4980398;28;20561;-77
2022/11/29 04:41:53;;;;;;;83.70;39.03;;;;;;;2.79;100.00;101143.50;4943700;29;20055;-77
2022/11/29 04:44:21;;;;;;;90.28;42.17;;;;;;;2.78;100.00;101142.63;4924859;29;20078;-76
2022/11/29 04:47:20;;;;;;;88.88;40.03;;;;;;;2.85;100.00;101151.00;4927790;29;20119;-76
2022/11/29 04:50:07;;;;;;;93.93;41.22;;;;;;;2.76;100.00;101155.06;4943718;29;20039;-77
2022/11/29 04:52:51;;;;;;;86.57;42.00;;;;;;;2.78;100.00;101158.47;4943892;29;20138;-77
2022/11/29 04:55:32;;;;;;;90.35;41.08;;;;;;;2.82;100.00;101165.22;4927568;29;20537;-76
2022/11/29 04:58:25;;;;;;;88.30;39.33;;;;;;;2.71;100.00;101163.28;4928230;28;20039;-76
2022/11/29 05:01:08;;;;;;;96.18;41.47;;;;;;;2.70;100.00;101166.03;4947132;29;20433;-76
2022/11/29 05:04:12;;;;;;;91.53;40.78;;;;;;;2.77;100.00;101172.59;4931970;29;20109;-77
2022/11/29 05:06:48;;;;;;;70.30;32.93;;;;;;;2.64;100.00;101167.28;4947053;29;20477;-78
2022/11/29 05:09:26;;;;;;;87.30;39.72;;;;;;;2.74;100.00;101178.09;4950136;29;20115;-77
2022/11/29 05:12:33;;;;;;;84.90;40.80;;;;;;;2.81;100.00;101179.38;4955689;28;20443;-78
2022/11/29 05:15:20;;;;;;;88.45;39.47;;;;;;;2.67;100.00;101182.03;4935852;29;20448;-78
2022/11/29 05:17:57;;;;;;;89.10;41.45;;;;;;;2.82;100.00;101186.31;4948391;29;20337;-78
2022/11/29 05:20:38;;;;;;;87.18;40.80;;;;;;;2.85;100.00;101183.47;4914888;29;20126;-79
2022/11/29 05:23:21;;;;;;;96.57;43.80;;;;;;;2.81;100.00;101181.13;4938217;29;20039;-78
2022/11/29 05:26:09;;;;;;;91.05;41.92;;;;;;;2.86;100.00;101192.25;4947640;29;20046;-79
2022/11/29 05:28:57;;;;;;;94.50;41.13;;;;;;;2.72;100.00;101182.63;4933766;29;20066;-78
2022/11/29 05:31:36;;;;;;;91.47;41.50;;;;;;;2.70;100.00;101187.13;4933046;29;20039;-78
2022/11/29 05:34:38;;;;;;;92.32;42.10;;;;;;;2.69;100.00;101190.69;4928340;29;20043;-78
2022/11/29 05:37:23;;;;;;;93.38;40.97;;;;;;;2.67;100.00;101187.31;4932988;29;20039;-80
2022/11/29 05:40:02;;;;;;;88.70;41.78;;;;;;;2.78;100.00;101198.00;4938054;29;20488;-76
2022/11/29 05:42:53;;;;;;;99.40;44.25;;;;;;;2.67;100.00;101198.72;4935670;29;20047;-78
2022/11/29 05:45:27;;;;;;;87.00;41.45;;;;;;;2.66;100.00;101198.81;4952460;28;20053;-77
2022/11/29 05:48:23;;;;;;;102.05;44.60;;;;;;;2.77;100.00;101204.25;5002257;28;20062;-78
2022/11/29 05:51:13;;;;;;;91.68;41.67;;;;;;;2.80;100.00;101205.84;4988630;28;20041;-76
2022/11/29 05:53:45;;;;;;;80.65;40.55;;;;;;;2.74;100.00;101215.84;4989295;28;20038;-78
2022/11/29 05:56:38;;;;;;;87.68;40.40;;;;;;;2.73;100.00;101213.28;4989200;28;20814;-77
2022/11/29 05:59:11;;;;;;;86.55;39.00;;;;;;;2.79;100.00;101212.06;4984103;28;20045;-77
2022/11/29 06:01:51;;;;;;;95.32;41.78;;;;;;;2.79;100.00;101218.19;4981756;28;20147;-78
2022/11/29 06:04:50;;;;;;;96.28;42.53;;;;;;;2.83;100.00;101229.34;4971808;28;20066;-78
2022/11/29 06:07:17;;;;;;;97.72;41.42;;;;;;;2.89;100.00;101227.16;4988333;28;20070;-78
2022/11/29 06:09:49;;;;;;;95.75;44.17;;;;;;;2.80;100.00;101219.84;4986811;28;20037;-79
2022/11/29 06:12:19;;;;;;;89.22;42.05;;;;;;;2.73;100.00;101221.22;4983762;28;20041;-79
2022/11/29 06:14:55;;;;;;;95.43;44.47;;;;;;;2.79;100.00;101228.72;4988060;28;20439;-79
2022/11/29 06:17:51;;;;;;;95.93;43.40;;;;;;;2.72;100.00;101227.44;4989241;28;20121;-79
2022/11/29 06:20:35;;;;;;;;;;;;;;;2.80;100.00;101227.75;4983963;28;20400;-79
2022/11/29 06:23:16;;;;;;;83.75;39.92;;;;;;;2.82;100.00;101238.22;4973339;28;20402;-79
2022/11/29 06:25:57;;;;;;;88.65;40.00;;;;;;;2.78;100.00;101237.56;4987324;28;20026;-79
2022/11/29 06:29:01;;;;;;;96.03;41.83;;;;;;;2.75;100.00;101235.13;4989711;28;20034;-79
2022/11/29 06:31:33;;;;;;;89.70;39.60;;;;;;;2.74;100.00;101238.75;4907970;29;20043;-77
2022/11/29 06:34:19;;;;;;;103.53;43.60;;;;;;;2.77;100.00;101235.88;4912970;29;20044;-77
2022/11/29 06:36:53;;;;;;;90.03;41.03;;;;;;;2.73;100.00;101242.31;4917730;29;20085;-76
2022/11/29 06:39:19;;;;;;;95.32;43.20;;;;;;;2.72;100.00;101244.09;4919059;29;20039;-77
2022/11/29 06:41:45;;;;;;;;;;;;;;;2.74;100.00;101247.47;4904400;29;20052;-77
2022/11/29 06:44:11;;;;;;;88.18;38.85;;;;;;;2.80;100.00;101243.59;4918333;29;19918;-78
2022/11/29 06:46:46;;;;;;;100.32;44.83;;;;;;;2.75;100.00;101245.69;4901771;29;20036;-79
2022/11/29 06:49:21;;;;;;;91.07;42.90;;;;;;;2.84;100.00;101250.38;4921585;29;20039;-78
2022/11/29 06:52:06;;;;;;;67.60;30.77;;;;;;;2.81;100.00;101247.06;4914542;29;20050;-78
2022/11/29 06:54:49;;;;;;;93.30;39.95;;;;;;;2.86;100.00;101256.38;4932430;29;20055;-78
2022/11/29 06:57:39;;;;;;;99.60;43.50;;;;;;;2.85;100.00;101256.47;4918361;29;20047;-77
2022/11/29 07:00:25;;;;;;;97.10;43.33;;;;;;;2.89;100.00;101260.63;4911661;29;20070;-76
2022/11/29 07:03:32;;;;;;;93.68;39.67;;;;;;;2.85;100.00;101256.47;4931412;29;20043;-77
2022/11/29 07:05:59;;;;;;;87.95;40.40;;;;;;;2.88;100.00;101264.19;4911940;28;20046;-79
2022/11/29 07:08:25;;;;;;;80.75;37.67;;;;;;;2.73;100.00;101255.47;4987505;28;20057;-77
2022/11/29 07:10:52;;;;;;;87.15;40.58;;;;;;;2.68;100.00;101260.22;4968295;28;20034;-79
2022/11/29 07:13:19;;;;;;;83.60;37.50;;;;;;;2.74;100.00;101262.47;4989233;28;20038;-79
2022/11/29 07:15:56;;;;;;;83.35;39.97;;;;;;;2.73;100.00;101260.75;4971515;28;20042;-78
2022/11/29 07:19:02;;;;;;;89.70;38.40;;;;;;;2.77;100.00;101266.69;4981278;28;20062;-77
2022/11/29 07:22:12;;;;;;;92.05;41.08;;;;;;;2.69;100.00;101280.34;4991907;28;20128;-78
2022/11/29 07:24:55;;;;;;;84.68;38.78;;;;;;;2.67;100.00;101272.56;4918018;29;20062;-77
2022/11/29 07:27:36;;;;;;;86.57;40.08;;;;;;;2.61;100.00;101277.38;4918120;29;20043;-77
2022/11/29 07:30:08;;;;;;;89.65;40.63;;;;;;;2.70;100.00;101284.69;4905102;29;20040;-77
2022/11/29 07:32:41;;;;;;;88.38;41.63;;;;;;;2.73;100.00;101295.03;4917606;29;20664;-77
2022/11/29 07:35:29;;;;;;;94.28;39.47;;;;;;;2.66;100.00;101291.09;4912313;29;20056;-77
2022/11/29 07:38:45;;;;;;;86.00;39.88;;;;;;;2.60;100.00;101296.75;4925742;29;20044;-76
2022/11/29 07:41:45;;;;;;;86.53;41.00;;;;;;;2.62;100.00;101289.59;4895157;29;20055;-78
2022/11/29 07:44:34;;;;;;;92.68;41.10;;;;;;;2.68;100.00;101291.84;4884261;29;20044;-77
2022/11/29 07:47:00;;;;;;;87.80;38.55;;;;;;;2.69;100.00;101293.53;4887499;29;20094;-77
2022/11/29 07:49:25;;;;;;;84.80;37.67;;;;;;;2.64;100.00;101287.72;4885899;29;20106;-78
2022/11/29 07:51:53;;;;;;;79.07;37.10;;;;;;;2.57;100.00;101286.41;4874562;29;20322;-77
2022/11/29 07:54:19;;;;;;;86.70;40.20;;;;;;;2.64;100.00;101288.56;4890021;29;20550;-77
2022/11/29 07:56:45;;;;;;;92.80;41.08;;;;;;;2.70;100.00;101292.59;4876955;29;20067;-77
2022/11/29 07:59:11;;;;;;;95.38;41.78;;;;;;;2.63;100.00;101284.25;4893812;29;20108;-77
2022/11/29 08:01:38;;;;;;;87.13;40.13;;;;;;;2.74;100.00;101297.59;4893938;29;20042;-75
2022/11/29 08:04:04;;;;;;;85.88;37.40;;;;;;;2.70;100.00;101297.88;4914652;29;20586;-78
2022/11/29 08:06:29;;;;;;;98.28;39.58;;;;;;;2.85;100.00;101296.88;4914131;29;20528;-75
2022/11/29 08:08:58;;;;;;;88.43;39.23;;;;;;;2.73;100.00;101295.03;4912609;29;20043;-77
2022/11/29 08:11:24;;;;;;;85.75;38.85;;;;;;;2.70;100.00;101290.81;4914401;29;20052;-76
2022/11/29 08:13:54;;;;;;;85.47;36.72;;;;;;;2.67;100.00;101298.06;4914189;29;20091;-79
2022/11/29 08:16:19;;;;;;;91.00;37.58;;;;;;;2.84;100.00;101300.47;4959442;28;20054;-77
2022/11/29 08:18:45;;;;;;;92.60;40.80;;;;;;;2.77;100.00;101299.19;4989072;28;20038;-76
2022/11/29 08:21:10;;;;;;;86.17;37.97;;;;;;;2.71;100.00;101294.28;4989186;28;20030;-78
2022/11/29 08:23:35;;;;;;;93.17;41.73;;;;;;;2.66;100.00;101291.94;4989619;28;20285;-77
2022/11/29 08:26:02;;;;;;;88.47;39.53;;;;;;;2.81;100.00;101305.94;4989045;28;20027;-78
2022/11/29 08:28:28;;;;;;;88.78;38.78;;;;;;;2.99;100.00;101305.69;4989080;28;20038;-77
2022/11/29 08:31:04;;;;;;;91.65;38.85;;;;;;;2.99;100.00;101308.34;4988513;28;20150;-78
2022/11/29 08:33:30;;;;;;;91.53;38.05;;;;;;;3.03;100.00;101300.13;4989199;28;20046;-77
2022/11/29 08:35:56;;;;;;;86.35;38.15;;;;;;;2.92;100.00;101287.63;4988728;28;20381;-77
2022/11/29 08:38:21;;;;;;;80.00;37.08;;;;;;;2.75;100.00;101261.50;4974114;28;20173;-78
2022/11/29 08:40:47;;;;;;;88.00;39.38;;;;;;;2.84;100.00;101284.66;4990021;28;20030;-78
2022/11/29 08:43:12;;;;;;;84.27;38.33;;;;;;;2.93;100.00;101288.50;4990587;28;20045;-77
2022/11/29 08:45:37;;;;;;;87.00;39.63;;;;;;;3.00;100.00;101302.97;4989460;28;20286;-77
2022/11/29 08:48:03;;;;;;;84.40;40.17;;;;;;;3.02;100.00;101293.16;4990367;28;20034;-78
2022/11/29 08:50:28;;;;;;;86.28;38.70;;;;;;;3.20;100.00;101306.91;4989920;28;20038;-76
2022/11/29 08:55:41;;;;;;;88.80;39.25;;;;;;;3.11;100.00;101292.56;4993233;28;20076;-76
2022/11/29 08:58:13;;;;;;;84.40;38.72;;;;;;;3.24;100.00;101297.88;4994465;28;20034;-77
2022/11/29 09:00:39;;;;;;;84.22;37.08;;;;;;;3.56;100.00;101305.44;4988653;28;20038;-77
2022/11/29 09:05:51;;;;;;;79.60;38.42;;;;;;;3.35;100.00;101284.81;4989250;28;20035;-79
2022/11/29 09:08:16;;;;;;;83.45;38.00;;;;;;;3.26;100.00;101266.94;4988113;28;20080;-79
2022/11/29 09:10:42;;;;;;;88.63;40.28;;;;;;;3.32;100.00;101285.00;4988212;28;20042;-79
2022/11/29 09:13:08;;;;;;;83.47;39.35;;;;;;;3.43;100.00;101280.81;4971671;28;20042;-77
2022/11/29 09:15:40;;;;;;;86.38;40.65;;;;;;;3.24;100.00;101268.84;4985923;28;20038;-76
2022/11/29 09:18:06;;;;;;;78.78;38.08;;;;;;;3.29;100.00;101277.28;4970048;28;20177;-78
2022/11/29 09:20:32;;;;;;;80.25;37.40;;;;;;;3.33;100.00;101276.13;4986549;28;20089;-76
2022/11/29 09:22:58;;;;;;;78.13;35.40;;;;;;;3.35;100.00;101278.69;4980514;28;20038;-76
2022/11/29 09:25:24;;;;;;;76.47;37.35;;;;;;;3.43;100.00;101286.09;4987624;28;20501;-76
2022/11/29 09:27:50;;;;;;;81.40;37.08;;;;;;;3.24;100.00;101271.47;4988372;28;20469;-77
2022/11/29 09:30:16;;;;;;;84.35;40.00;;;;;;;3.31;100.00;101285.94;4987198;28;20109;-77
2022/11/29 09:32:41;;;;;;;81.10;38.17;;;;;;;3.34;100.00;101292.81;4979982;28;20121;-77
2022/11/29 09:35:07;;;;;;;88.40;40.75;;;;;;;3.35;100.00;101290.09;4987818;28;20042;-78
2022/11/29 09:37:35;;;;;;;80.43;38.20;;;;;;;3.35;100.00;101294.53;4986391;28;20479;-79
2022/11/29 09:40:02;;;;;;;89.63;41.70;;;;;;;3.20;100.00;101288.44;4980784;28;20062;-78
2022/11/29 09:43:10;;;;;;;85.57;40.58;;;;;;;3.23;100.00;101303.22;4988027;28;20030;-78
2022/11/29 09:45:41;;;;;;;80.93;37.30;;;;;;;3.24;100.00;101313.69;4905947;29;20081;-76
2022/11/29 09:48:31;;;;;;;83.28;37.60;;;;;;;3.17;100.00;101322.97;4914794;29;20054;-78
2022/11/29 09:51:11;;;;;;;86.10;40.20;;;;;;;3.21;100.00;101323.59;4909332;29;20039;-77
2022/11/29 09:53:55;;;;;;;84.75;38.97;;;;;;;3.33;100.00;101336.84;4919366;29;20120;-77
2022/11/29 09:56:35;;;;;;;85.32;38.90;;;;;;;3.38;100.00;101332.09;4914116;29;20040;-77
2022/11/29 09:59:11;;;;;;;83.32;38.63;;;;;;;3.30;100.00;101323.88;4919018;29;20066;-79
2022/11/29 10:01:38;;;;;;;;;;;;;;;3.29;100.00;101311.59;4927265;29;20050;-77
2022/11/29 10:04:10;;;;;;;80.63;36.95;;;;;;;3.41;100.00;101317.84;4934112;29;19914;-75
2022/11/29 10:06:42;;;;;;;79.85;37.78;;;;;;;3.48;100.00;101305.94;4912872;29;20043;-78
2022/11/29 10:09:36;;;;;;;83.22;37.88;;;;;;;3.53;100.00;101308.25;4920159;29;20417;-79
2022/11/29 10:12:24;;;;;;;79.05;36.13;;;;;;;3.53;100.00;101305.63;4915131;29;20103;-78
2022/11/29 10:15:04;;;;;;;82.57;37.50;;;;;;;3.51;100.00;101289.03;4938134;29;20044;-77
2022/11/29 10:17:56;;;;;;;83.30;36.17;;;;;;;3.54;100.00;101300.25;4912718;29;20039;-77
2022/11/29 10:20:24;;;;;;;79.40;37.83;;;;;;;3.56;100.00;101294.88;4978139;28;20046;-77
2022/11/29 10:22:59;;;;;;;79.30;37.30;;;;;;;3.34;100.00;101283.09;4990324;28;20037;-78
2022/11/29 10:25:30;;;;;;;79.35;38.85;;;;;;;3.36;100.00;101285.66;4989466;28;20034;-77
2022/11/29 10:27:56;;;;;;;79.90;37.63;;;;;;;3.53;100.00;101303.81;4990238;28;20092;-77
2022/11/29 10:30:21;;;;;;;77.20;38.22;;;;;;;3.33;100.00;101291.97;4983460;28;20165;-77
2022/11/29 10:32:53;;;;;;;89.37;38.47;;;;;;;3.38;100.00;101299.59;4971157;28;20034;-79
2022/11/29 10:35:19;;;;;;;78.00;34.28;;;;;;;3.33;100.00;101296.41;4986883;28;20038;-76
2022/11/29 10:37:46;;;;;;;85.68;40.13;;;;;;;3.40;100.00;101317.97;4985830;28;20038;-79
2022/11/29 10:40:16;;;;;;;81.15;38.88;;;;;;;3.46;100.00;101315.75;4990248;28;20613;-77
2022/11/29 10:42:48;;;;;;;83.10;38.30;;;;;;;3.44;100.00;101308.88;4983302;28;20472;-77
2022/11/29 10:45:26;;;;;;;78.25;37.40;;;;;;;3.53;100.00;101317.03;4984231;28;20881;-77
2022/11/29 10:47:54;;;;;;;91.05;42.22;;;;;;;3.35;100.00;101305.91;4988969;28;20125;-79
2022/11/29 10:50:25;;;;;;;79.45;36.35;;;;;;;3.29;100.00;101292.28;4990788;28;20050;-76
2022/11/29 10:52:54;;;;;;;85.32;40.05;;;;;;;3.26;100.00;101298.63;4988282;28;20408;-78
2022/11/29 10:55:21;;;;;;;82.82;37.88;;;;;;;3.46;100.00;101320.19;4986735;28;20089;-77
2022/11/29 10:58:12;;;;;;;78.93;36.35;;;;;;;3.67;100.00;101326.66;4987026;28;20094;-78
2022/11/29 11:00:58;;;;;;;77.65;38.65;;;;;;;3.51;100.00;101307.53;4973222;28;20542;-78
2022/11/29 11:03:37;;;;;;;80.80;38.55;;;;;;;3.64;100.00;101312.84;4973135;28;20447;-78
2022/11/29 11:06:10;;;;;;;76.75;36.20;;;;;;;3.63;100.00;101314.63;4993381;28;20030;-78
2022/11/29 11:08:38;;;;;;;82.28;38.85;;;;;;;3.62;100.00;101302.38;4986969;28;20039;-79
2022/11/29 11:11:06;;;;;;;88.57;40.63;;;;;;;3.51;100.00;101291.69;4992485;28;20042;-77
2022/11/29 11:13:33;;;;;;;77.05;36.78;;;;;;;3.62;100.00;101309.44;4987155;28;20057;-78
2022/11/29 11:16:14;;;;;;;84.07;38.95;;;;;;;3.51;100.00;101292.53;4993870;28;20032;-77
2022/11/29 11:18:39;;;;;;;78.60;38.60;;;;;;;3.67;100.00;101308.16;4993240;28;20034;-78
2022/11/29 11:21:09;;;;;;;84.15;38.15;;;;;;;3.54;100.00;101286.22;5002027;28;20034;-77
2022/11/29 11:23:38;;;;;;;90.60;42.88;;;;;;;3.71;100.00;101301.75;4992114;28;20049;-77
2022/11/29 11:26:06;;;;;;;90.18;44.08;;;;;;;3.62;100.00;101290.97;4986831;28;20510;-77
2022/11/29 11:28:54;;;;;;;83.78;38.90;;;;;;;3.78;100.00;101303.00;4990015;28;20026;-78
2022/11/29 11:31:54;;;;;;;77.88;38.50;;;;;;;3.73;100.00;101293.72;4992121;28;20046;-78
2022/11/29 11:34:27;;;;;;;85.45;39.13;;;;;;;3.78;100.00;101304.81;4987868;28;20407;-78
2022/11/29 11:37:20;;;;;;;88.05;40.50;;;;;;;3.59;100.00;101292.84;4987540;28;20034;-78
2022/11/29 11:39:48;;;;;;;93.57;40.15;;;;;;;3.65;100.00;101307.44;4990603;28;20069;-77
2022/11/29 11:42:36;;;;;;;82.80;40.47;;;;;;;3.59;100.00;101306.06;4988345;28;20419;-77
2022/11/29 11:45:11;;;;;;;96.80;41.65;;;;;;;3.72;100.00;101319.28;4984996;28;20044;-77
2022/11/29 11:47:56;;;;;;;70.78;33.75;;;;;;;3.79;100.00;101323.22;4987751;28;20492;-78
2022/11/29 11:50:36;;;;;;;101.10;43.80;;;;;;;3.57;100.00;101307.94;4984270;28;20038;-78
2022/11/29 11:53:26;;;;;;;99.57;43.55;;;;;;;3.51;100.00;101320.72;5001610;28;20092;-77
2022/11/29 11:55:59;;;;;;;99.35;45.05;;;;;;;3.45;100.00;101326.44;4984512;28;20534;-78
2022/11/29 11:58:31;;;;;;;99.80;43.38;;;;;;;3.58;100.00;101345.75;4991845;28;20173;-77